createdAt,value
2017-08-20T00:00:03.083Z,2.57
2017-08-20T00:02:37.297Z,2.23
2017-08-20T00:05:11.696Z,2.50
2017-08-20T00:07:46.179Z,2.47
2017-08-20T00:10:20.659Z,2.90
2017-08-20T00:12:55.218Z,2.30
2017-08-20T00:15:29.460Z,2.40
2017-08-20T00:18:03.863Z,2.57
2017-08-20T00:20:38.135Z,2.47
2017-08-20T00:23:12.444Z,2.37
2017-08-20T00:25:46.887Z,2.70
2017-08-20T00:28:21.143Z,2.27
2017-08-20T00:30:55.472Z,2.83
2017-08-20T00:33:29.925Z,2.50
2017-08-20T00:36:04.158Z,2.70
2017-08-20T00:38:38.447Z,2.50
2017-08-20T00:41:12.667Z,2.23
2017-08-20T00:43:46.911Z,2.30
2017-08-20T00:46:21.368Z,2.70
2017-08-20T00:48:55.635Z,2.40
2017-08-20T00:51:29.968Z,2.40
2017-08-20T00:54:04.387Z,3.00
2017-08-20T00:56:38.845Z,2.47
2017-08-20T00:59:13.084Z,2.80
2017-08-20T01:01:49.472Z,2.33
2017-08-20T01:04:23.888Z,2.50
2017-08-20T01:06:58.029Z,3.37
2017-08-20T01:09:32.373Z,2.53
2017-08-20T01:12:06.648Z,3.43
2017-08-20T01:14:40.724Z,3.07
2017-08-20T01:17:15.063Z,2.33
2017-08-20T01:19:49.348Z,2.57
2017-08-20T01:22:23.797Z,3.00
2017-08-20T01:24:58.050Z,2.90
2017-08-20T01:27:32.415Z,3.13
2017-08-20T01:30:06.607Z,2.77
2017-08-20T01:32:40.703Z,2.77
2017-08-20T01:35:14.955Z,2.60
2017-08-20T01:37:49.506Z,2.47
2017-08-20T01:40:23.685Z,2.53
2017-08-20T01:42:58.004Z,3.10
2017-08-20T01:45:32.200Z,2.83
2017-08-20T01:48:06.251Z,2.50
2017-08-20T01:50:40.540Z,2.60
2017-08-20T01:53:14.880Z,2.13
2017-08-20T01:55:49.052Z,2.30
2017-08-20T01:58:23.577Z,2.40
2017-08-20T02:00:58.102Z,2.80
2017-08-20T02:03:32.392Z,2.83
2017-08-20T02:06:06.737Z,2.50
2017-08-20T02:08:40.907Z,2.57
2017-08-20T02:11:15.321Z,2.43
2017-08-20T02:13:49.679Z,2.40
2017-08-20T02:16:23.993Z,2.50
2017-08-20T02:18:58.377Z,2.50
2017-08-20T02:21:32.700Z,2.13
2017-08-20T02:27:01.336Z,2.70
2017-08-20T02:29:35.673Z,2.40
2017-08-20T02:32:10.880Z,2.73
2017-08-20T02:34:45.232Z,2.20
2017-08-20T02:37:19.423Z,2.87
2017-08-20T02:39:53.952Z,2.30
2017-08-20T02:42:28.224Z,2.80
2017-08-20T02:45:02.547Z,2.23
2017-08-20T02:47:36.939Z,2.60
2017-08-20T02:50:11.210Z,2.40
2017-08-20T02:52:45.711Z,2.43
2017-08-20T02:55:21.137Z,2.53
2017-08-20T02:57:55.396Z,2.50
2017-08-20T03:00:29.594Z,2.40
2017-08-20T03:03:03.748Z,2.37
2017-08-20T03:05:38.008Z,2.50
2017-08-20T03:08:12.329Z,2.90
2017-08-20T03:10:46.553Z,2.77
2017-08-20T03:13:20.865Z,2.60
2017-08-20T03:15:55.294Z,2.63
2017-08-20T03:18:29.653Z,2.90
2017-08-20T03:21:04.028Z,2.90
2017-08-20T03:23:38.306Z,3.00
2017-08-20T03:26:12.660Z,2.77
2017-08-20T03:28:46.930Z,3.00
2017-08-20T03:31:21.206Z,2.67
2017-08-20T03:33:55.476Z,2.77
2017-08-20T03:36:29.807Z,2.87
2017-08-20T03:39:04.056Z,3.03
2017-08-20T03:41:38.534Z,2.93
2017-08-20T03:44:12.921Z,2.87
2017-08-20T03:46:47.376Z,3.30
2017-08-20T03:49:21.497Z,2.53
2017-08-20T03:51:55.930Z,2.90
2017-08-20T03:54:30.017Z,3.23
2017-08-20T03:57:04.280Z,3.57
2017-08-20T03:59:38.556Z,3.33
2017-08-20T04:02:13.059Z,3.30
2017-08-20T04:04:47.221Z,3.07
2017-08-20T04:07:21.602Z,3.03
2017-08-20T04:09:55.807Z,2.70
2017-08-20T04:12:30.048Z,3.50
2017-08-20T04:15:05.320Z,3.10
2017-08-20T04:17:39.766Z,3.30
2017-08-20T04:20:14.086Z,3.10
2017-08-20T04:22:48.328Z,3.40
2017-08-20T04:25:22.914Z,3.10
2017-08-20T04:27:57.181Z,3.67
2017-08-20T04:30:31.440Z,3.33
2017-08-20T04:33:06.612Z,3.50
2017-08-20T04:35:41.063Z,2.93
2017-08-20T04:38:15.424Z,3.43
2017-08-20T04:40:49.772Z,3.03
2017-08-20T04:43:23.900Z,3.20
2017-08-20T04:45:58.284Z,3.53
2017-08-20T04:48:32.654Z,3.10
2017-08-20T04:51:07.179Z,3.30
2017-08-20T04:53:41.400Z,3.60
2017-08-20T04:56:15.813Z,3.50
2017-08-20T04:58:50.290Z,3.10
2017-08-20T05:01:24.505Z,3.90
2017-08-20T05:03:58.891Z,3.57
2017-08-20T05:06:33.445Z,3.30
2017-08-20T05:09:07.829Z,3.93
2017-08-20T05:11:42.042Z,3.27
2017-08-20T05:14:16.272Z,3.50
2017-08-20T05:16:50.406Z,3.10
2017-08-20T05:19:24.744Z,3.63
2017-08-20T05:21:58.752Z,4.10
2017-08-20T05:24:33.061Z,3.67
2017-08-20T05:27:07.283Z,3.87
2017-08-20T05:29:41.735Z,3.40
2017-08-20T05:32:16.120Z,4.00
2017-08-20T05:34:50.401Z,3.33
2017-08-20T05:37:24.767Z,3.23
2017-08-20T05:39:59.071Z,4.20
2017-08-20T05:42:33.212Z,3.33
2017-08-20T05:45:07.419Z,3.10
2017-08-20T05:47:41.576Z,3.73
2017-08-20T05:50:15.844Z,2.97
2017-08-20T05:52:50.162Z,3.50
2017-08-20T05:55:24.295Z,3.50
2017-08-20T05:57:58.533Z,3.40
2017-08-20T06:00:32.856Z,3.23
2017-08-20T06:03:07.375Z,3.67
2017-08-20T06:05:41.584Z,3.13
2017-08-20T06:08:16.009Z,3.10
2017-08-20T06:10:50.155Z,3.97
2017-08-20T06:13:24.395Z,2.80
2017-08-20T06:15:58.648Z,3.63
2017-08-20T06:18:32.957Z,3.30
2017-08-20T06:21:07.275Z,3.50
2017-08-20T06:23:41.553Z,3.20
2017-08-20T06:26:15.879Z,3.27
2017-08-20T06:28:50.087Z,3.37
2017-08-20T06:31:24.404Z,3.77
2017-08-20T06:33:58.792Z,3.17
2017-08-20T06:36:33.003Z,3.40
2017-08-20T06:39:07.384Z,3.40
2017-08-20T06:41:41.651Z,3.50
2017-08-20T06:44:15.762Z,3.93
2017-08-20T06:46:50.123Z,3.83
2017-08-20T06:49:25.131Z,3.87
2017-08-20T06:51:59.495Z,4.27
2017-08-20T06:54:34.050Z,3.20
2017-08-20T06:57:08.262Z,3.60
2017-08-20T06:59:42.688Z,3.73
2017-08-20T07:02:16.939Z,3.73
2017-08-20T07:04:51.364Z,3.90
2017-08-20T07:07:25.555Z,3.20
2017-08-20T07:09:59.756Z,4.10
2017-08-20T07:12:34.590Z,3.77
2017-08-20T07:15:08.836Z,4.20
2017-08-20T07:17:43.098Z,3.90
2017-08-20T07:20:17.442Z,4.07
2017-08-20T07:22:51.776Z,3.30
2017-08-20T07:25:26.097Z,4.03
2017-08-20T07:28:00.470Z,4.30
2017-08-20T07:30:34.990Z,3.70
2017-08-20T07:33:09.340Z,3.97
2017-08-20T07:35:43.749Z,3.97
2017-08-20T07:38:18.523Z,3.73
2017-08-20T07:40:52.784Z,3.63
2017-08-20T07:43:27.038Z,4.10
2017-08-20T07:46:01.316Z,4.10
2017-08-20T07:48:35.659Z,4.10
2017-08-20T07:51:09.987Z,4.00
2017-08-20T07:53:44.192Z,3.73
2017-08-20T07:56:18.301Z,3.80
2017-08-20T07:58:52.510Z,3.70
2017-08-20T08:01:26.519Z,3.97
2017-08-20T08:04:00.576Z,3.80
2017-08-20T08:06:34.760Z,4.00
2017-08-20T08:09:08.913Z,3.83
2017-08-20T08:11:43.128Z,3.60
2017-08-20T08:14:17.293Z,4.00
2017-08-20T08:16:51.344Z,3.97
2017-08-20T08:19:25.699Z,3.90
2017-08-20T08:21:59.792Z,3.90
2017-08-20T08:24:33.897Z,3.97
2017-08-20T08:27:08.042Z,4.10
2017-08-20T08:29:42.063Z,3.90
2017-08-20T08:35:08.407Z,3.90
2017-08-20T08:37:42.510Z,5.50
2017-08-20T08:43:08.800Z,4.23
2017-08-20T08:45:42.840Z,4.50
2017-08-20T08:51:09.193Z,4.93
2017-08-20T08:53:43.397Z,3.97
2017-08-20T08:56:17.566Z,4.07
2017-08-20T09:01:43.829Z,3.90
2017-08-20T09:04:17.910Z,3.73
2017-08-20T09:09:43.995Z,4.53
2017-08-20T09:18:02.272Z,3.83
2017-08-20T09:20:36.428Z,4.00
2017-08-20T09:23:10.695Z,3.63
2017-08-20T09:25:44.832Z,4.27
2017-08-20T09:28:19.056Z,4.20
2017-08-20T09:30:53.095Z,4.20
2017-08-20T09:39:11.524Z,4.00
2017-08-20T09:44:38.036Z,2.93
2017-08-20T09:47:12.144Z,3.60
2017-08-20T09:49:46.251Z,3.57
2017-08-20T09:55:12.517Z,3.70
2017-08-20T09:57:46.681Z,3.27
2017-08-20T10:00:20.888Z,3.07
2017-08-20T10:02:55.020Z,2.80
2017-08-20T10:08:21.036Z,2.87
2017-08-20T10:10:55.312Z,2.70
2017-08-20T10:16:21.865Z,2.77
2017-08-20T10:18:55.913Z,2.60
2017-08-20T10:27:14.248Z,3.30
2017-08-20T10:29:48.318Z,3.10
2017-08-20T10:35:14.555Z,2.67
2017-08-20T10:37:48.719Z,3.30
2017-08-20T10:40:22.774Z,3.07
2017-08-20T10:42:56.865Z,2.60
2017-08-20T10:45:31.040Z,2.63
2017-08-20T10:48:05.173Z,2.63
2017-08-20T10:53:31.581Z,2.50
2017-08-20T11:01:50.014Z,2.50
2017-08-20T11:04:24.164Z,2.40
2017-08-20T11:06:58.315Z,2.23
2017-08-20T11:09:32.356Z,2.20
2017-08-20T11:17:50.806Z,2.27
2017-08-20T11:20:24.980Z,2.53
2017-08-20T11:25:51.194Z,2.40
2017-08-20T11:28:25.371Z,2.60
2017-08-20T11:33:51.555Z,2.23
2017-08-20T11:36:25.676Z,2.70
2017-08-20T11:38:59.796Z,2.47
2017-08-20T11:44:26.144Z,2.80
2017-08-20T11:55:36.520Z,2.70
2017-08-20T11:58:10.643Z,2.40
2017-08-20T12:00:44.935Z,2.50
2017-08-20T12:03:19.160Z,2.83
2017-08-20T12:05:53.261Z,2.73
2017-08-20T12:08:27.451Z,2.63
2017-08-20T12:11:01.548Z,2.50
2017-08-20T12:13:35.567Z,2.73
2017-08-20T12:16:09.739Z,2.60
2017-08-20T12:18:43.902Z,2.90
2017-08-20T12:21:18.009Z,2.87
2017-08-20T12:23:52.236Z,2.50
2017-08-20T12:26:26.395Z,2.90
2017-08-20T12:29:00.444Z,2.80
2017-08-20T12:31:37.087Z,2.80
2017-08-20T12:34:11.272Z,2.97
2017-08-20T12:36:45.385Z,3.03
2017-08-20T12:39:19.503Z,3.20
2017-08-20T12:41:53.797Z,3.60
2017-08-20T12:44:27.944Z,3.10
2017-08-20T12:47:01.993Z,3.17
2017-08-20T12:49:36.153Z,3.00
2017-08-20T12:52:10.258Z,3.47
2017-08-20T12:54:44.436Z,3.20
2017-08-20T12:57:18.590Z,3.40
2017-08-20T12:59:52.611Z,3.07
2017-08-20T13:02:26.744Z,3.00
2017-08-20T13:05:00.819Z,3.23
2017-08-20T13:07:34.963Z,3.80
2017-08-20T13:10:08.964Z,2.67
2017-08-20T13:15:35.217Z,3.50
2017-08-20T13:18:09.344Z,3.60
2017-08-20T13:20:43.413Z,3.80
2017-08-20T13:23:17.485Z,3.40
2017-08-20T13:25:51.732Z,3.50
2017-08-20T13:28:25.889Z,4.40
2017-08-20T13:31:00.019Z,4.57
2017-08-20T13:33:34.169Z,4.43
2017-08-20T13:36:08.412Z,4.37
2017-08-20T13:41:34.720Z,4.20
2017-08-20T13:44:08.874Z,3.97
2017-08-20T13:46:42.954Z,3.53
2017-08-20T13:57:53.523Z,3.30
2017-08-20T14:00:27.768Z,3.80
2017-08-20T14:03:01.800Z,3.50
2017-08-20T14:05:35.975Z,3.77
2017-08-20T14:08:10.140Z,3.47
2017-08-20T14:10:44.325Z,2.97
2017-08-20T14:13:18.571Z,3.30
2017-08-20T14:15:52.689Z,3.40
2017-08-20T14:18:26.864Z,3.27
2017-08-20T14:21:00.973Z,3.57
2017-08-20T14:23:35.179Z,3.33
2017-08-20T14:26:09.363Z,3.27
2017-08-20T14:28:43.489Z,2.90
2017-08-20T14:31:17.653Z,2.90
2017-08-20T14:33:51.844Z,3.17
2017-08-20T14:36:25.936Z,3.30
2017-08-20T14:39:00.145Z,3.30
2017-08-20T14:41:34.235Z,3.33
2017-08-20T14:44:08.486Z,3.20
2017-08-20T14:46:43.011Z,3.40
2017-08-20T14:49:17.175Z,3.10
2017-08-20T14:51:51.291Z,2.87
2017-08-20T14:54:25.324Z,3.00
2017-08-20T14:56:59.663Z,3.00
2017-08-20T14:59:33.929Z,2.90
2017-08-20T15:02:08.157Z,2.70
2017-08-20T15:04:42.409Z,2.80
2017-08-20T15:07:16.643Z,2.90
2017-08-20T15:09:50.988Z,2.80
2017-08-20T15:15:17.192Z,2.63
2017-08-20T15:17:51.312Z,2.43
2017-08-20T15:23:17.569Z,2.60
2017-08-20T15:25:51.736Z,2.33
2017-08-20T15:28:26.017Z,2.30
2017-08-20T15:39:36.397Z,2.30
2017-08-20T15:42:10.572Z,3.03
2017-08-20T15:44:44.821Z,1.97
2017-08-20T15:47:19.091Z,1.70
2017-08-20T15:49:53.141Z,2.00
2017-08-20T15:55:19.507Z,2.20
2017-08-20T15:57:53.619Z,1.90
2017-08-20T16:00:27.745Z,1.70
2017-08-20T16:03:01.879Z,1.80
2017-08-20T16:05:36.024Z,1.80
2017-08-20T16:08:10.239Z,1.90
2017-08-20T16:10:44.486Z,1.80
2017-08-20T16:13:18.593Z,1.70
2017-08-20T16:15:53.159Z,1.70
2017-08-20T16:24:11.324Z,1.80
2017-08-20T16:26:45.451Z,1.80
2017-08-20T16:29:19.569Z,1.83
2017-08-20T16:34:45.936Z,1.80
2017-08-20T16:45:56.362Z,2.00
2017-08-20T16:48:30.517Z,2.00
2017-08-20T16:51:04.635Z,1.97
2017-08-20T16:53:38.842Z,2.03
2017-08-20T16:56:13.001Z,1.90
2017-08-20T16:58:47.168Z,1.90
2017-08-20T17:01:21.267Z,2.10
2017-08-20T17:03:55.296Z,1.97
2017-08-20T17:15:05.736Z,2.10
2017-08-20T17:17:39.806Z,2.50
2017-08-20T17:20:14.019Z,2.50
2017-08-20T17:25:40.210Z,2.30
2017-08-20T17:28:14.431Z,2.17
2017-08-20T17:33:40.651Z,2.27
2017-08-20T17:36:14.848Z,2.23
2017-08-20T17:41:41.138Z,2.00
2017-08-20T17:44:15.442Z,2.60
2017-08-20T17:49:41.860Z,2.10
2017-08-20T17:55:08.178Z,2.20
2017-08-20T17:57:42.392Z,2.23
2017-08-20T18:00:16.565Z,2.30
2017-08-20T18:02:50.811Z,2.10
2017-08-20T18:05:24.972Z,2.30
2017-08-20T18:07:59.240Z,2.33
2017-08-20T18:10:33.269Z,2.87
2017-08-20T18:13:07.492Z,2.40
2017-08-20T18:15:41.551Z,2.07
2017-08-20T18:18:15.716Z,2.10
2017-08-20T18:20:52.457Z,2.07
2017-08-20T18:23:26.597Z,2.20
2017-08-20T18:26:00.855Z,2.23
2017-08-20T18:28:35.065Z,2.30
2017-08-20T18:31:09.152Z,2.80
2017-08-20T18:33:43.250Z,2.07
2017-08-20T18:36:17.373Z,2.47
2017-08-20T18:38:51.620Z,2.00
2017-08-20T18:41:25.761Z,2.10
2017-08-20T18:44:00.087Z,2.33
2017-08-20T18:46:34.219Z,2.10
2017-08-20T18:49:08.356Z,1.90
2017-08-20T18:51:42.651Z,2.13
2017-08-20T18:54:17.009Z,2.30
2017-08-20T18:56:51.088Z,2.13
2017-08-20T18:59:25.337Z,1.80
2017-08-20T19:01:59.556Z,2.17
2017-08-20T19:04:33.746Z,2.23
2017-08-20T19:07:07.841Z,2.53
2017-08-20T19:09:42.051Z,2.17
2017-08-20T19:18:00.539Z,2.77
2017-08-20T19:20:34.673Z,2.07
2017-08-20T19:23:08.994Z,2.30
2017-08-20T19:25:43.194Z,2.23
2017-08-20T19:28:17.312Z,2.20
2017-08-20T19:30:51.439Z,2.00
2017-08-20T19:39:09.845Z,2.53
2017-08-20T19:41:43.948Z,2.20
2017-08-20T19:44:18.072Z,2.30
2017-08-20T19:49:44.407Z,2.30
2017-08-20T19:58:02.821Z,2.37
2017-08-20T20:00:42.334Z,2.80
2017-08-20T20:06:08.897Z,2.60
2017-08-20T20:08:43.002Z,2.87
2017-08-20T20:11:17.199Z,2.40
2017-08-20T20:13:51.354Z,2.90
2017-08-20T20:16:25.605Z,2.90
2017-08-20T20:21:53.096Z,2.60
2017-08-20T20:24:27.146Z,3.13
2017-08-20T20:27:01.463Z,3.17
2017-08-20T20:29:35.579Z,2.30
2017-08-20T20:35:01.551Z,2.30
2017-08-20T20:37:35.772Z,2.40
2017-08-20T20:40:09.840Z,3.10
2017-08-20T20:45:36.298Z,3.47
2017-08-20T20:53:54.713Z,3.13
2017-08-20T20:56:28.806Z,2.90
2017-08-20T21:04:47.245Z,2.67
2017-08-20T21:07:21.570Z,2.70
2017-08-20T21:09:55.696Z,2.97
2017-08-20T21:18:13.932Z,3.30
2017-08-20T21:20:48.711Z,3.53
2017-08-20T21:23:22.806Z,2.87
2017-08-20T21:25:56.996Z,3.07
2017-08-20T21:28:31.031Z,5.90
2017-08-20T21:31:05.306Z,3.53
2017-08-20T21:33:39.440Z,2.70
2017-08-20T21:36:13.651Z,3.80
2017-08-20T21:41:40.178Z,4.80
2017-08-20T21:49:58.448Z,3.27
2017-08-20T21:55:24.688Z,3.17
2017-08-20T21:57:58.727Z,2.20
2017-08-20T22:00:32.989Z,2.40
2017-08-20T22:03:07.228Z,3.00
2017-08-20T22:05:41.412Z,2.47
2017-08-20T22:08:15.584Z,2.47
2017-08-20T22:10:49.677Z,2.63
2017-08-20T22:13:23.867Z,2.40
2017-08-20T22:24:34.405Z,2.50
2017-08-20T22:27:08.476Z,2.70
2017-08-20T22:29:42.632Z,3.17
2017-08-20T22:38:01.157Z,2.40
2017-08-20T22:46:20.001Z,2.43
2017-08-20T22:48:54.215Z,3.03
2017-08-20T22:51:28.472Z,2.90
2017-08-20T22:54:02.594Z,2.77
2017-08-20T22:56:36.865Z,2.77
2017-08-20T22:59:10.968Z,2.63
2017-08-20T23:01:45.644Z,2.93
2017-08-20T23:04:19.893Z,3.07
2017-08-20T23:06:54.378Z,3.10
2017-08-20T23:09:28.844Z,3.00
2017-08-20T23:12:03.271Z,2.97
2017-08-20T23:14:37.822Z,3.47
2017-08-20T23:17:12.470Z,2.80
2017-08-20T23:19:46.732Z,3.07
2017-08-20T23:22:21.688Z,2.73
2017-08-20T23:24:56.142Z,3.60
2017-08-20T23:27:30.562Z,2.60
2017-08-20T23:30:05.023Z,3.47
2017-08-20T23:32:39.896Z,2.97
2017-08-20T23:35:14.156Z,3.20
2017-08-20T23:37:48.835Z,2.90
2017-08-20T23:40:23.482Z,2.70
2017-08-20T23:42:57.851Z,2.90
2017-08-20T23:45:31.963Z,2.80
2017-08-20T23:48:06.392Z,2.50
2017-08-20T23:50:40.787Z,2.77
2017-08-20T23:53:15.078Z,2.90
2017-08-20T23:55:49.220Z,2.70
2017-08-20T23:58:24.125Z,3.20
